createdAt,value
2022-09-02T00:00:59.430Z,3.37
2022-09-02T00:03:30.136Z,3.20
2022-09-02T00:05:58.982Z,3.10
2022-09-02T00:08:27.582Z,3.30
2022-09-02T00:10:55.971Z,3.37
2022-09-02T00:13:24.393Z,3.47
2022-09-02T00:15:53.268Z,3.67
2022-09-02T00:18:21.883Z,3.37
2022-09-02T00:20:51.669Z,3.40
2022-09-02T00:23:20.435Z,3.47
2022-09-02T00:25:49.005Z,3.60
2022-09-02T00:28:19.976Z,3.30
2022-09-02T00:30:49.619Z,3.80
2022-09-02T00:33:18.045Z,3.70
2022-09-02T00:35:46.517Z,3.70
2022-09-02T00:38:16.486Z,3.77
2022-09-02T00:40:46.315Z,3.80
2022-09-02T00:43:23.630Z,3.50
2022-09-02T00:45:52.176Z,3.47
2022-09-02T00:48:20.581Z,3.50
2022-09-02T00:50:49.136Z,4.40
2022-09-02T00:53:21.137Z,3.50
2022-09-02T00:55:50.658Z,3.90
2022-09-02T00:58:20.802Z,3.60
2022-09-02T01:00:52.596Z,4.23
2022-09-02T01:03:22.933Z,3.80
2022-09-02T01:05:52.339Z,4.00
2022-09-02T01:08:25.335Z,3.40
2022-09-02T01:10:55.822Z,3.63
2022-09-02T01:13:25.350Z,3.93
2022-09-02T01:15:55.544Z,3.60
2022-09-02T01:18:29.314Z,3.87
2022-09-02T01:20:58.227Z,3.77
2022-09-02T01:23:29.361Z,3.70
2022-09-02T01:26:03.681Z,3.20
2022-09-02T01:28:33.475Z,3.37
2022-09-02T01:31:02.412Z,3.80
2022-09-02T01:33:31.709Z,3.70
2022-09-02T01:36:01.881Z,3.90
2022-09-02T01:38:32.199Z,3.40
2022-09-02T01:41:01.564Z,3.60
2022-09-02T01:43:31.449Z,3.40
2022-09-02T01:46:00.637Z,3.70
2022-09-02T01:48:32.037Z,3.70
2022-09-02T01:51:03.622Z,3.47
2022-09-02T01:53:33.712Z,3.40
2022-09-02T01:56:02.196Z,3.50
2022-09-02T01:58:34.838Z,3.27
2022-09-02T02:01:03.409Z,3.60
2022-09-02T02:03:32.522Z,3.93
2022-09-02T02:06:01.042Z,3.23
2022-09-02T02:08:37.357Z,3.87
2022-09-02T02:11:06.015Z,3.40
2022-09-02T02:13:34.855Z,3.97
2022-09-02T02:16:03.601Z,3.70
2022-09-02T02:18:33.365Z,3.73
2022-09-02T02:21:01.808Z,3.40
2022-09-02T02:23:30.211Z,4.10
2022-09-02T02:26:00.538Z,4.17
2022-09-02T02:28:30.285Z,3.30
2022-09-02T02:31:00.369Z,3.80
2022-09-02T02:33:33.292Z,3.70
2022-09-02T02:36:06.245Z,3.70
2022-09-02T02:38:35.352Z,4.50
2022-09-02T02:41:06.457Z,4.17
2022-09-02T02:43:35.455Z,4.10
2022-09-02T02:46:03.925Z,4.43
2022-09-02T02:48:32.836Z,3.83
2022-09-02T02:51:01.500Z,4.00
2022-09-02T02:53:31.349Z,3.53
2022-09-02T02:56:00.035Z,4.50
2022-09-02T02:58:30.202Z,4.10
2022-09-02T03:00:58.908Z,3.93
2022-09-02T03:03:27.629Z,4.53
2022-09-02T03:05:58.098Z,4.30
2022-09-02T03:08:28.928Z,4.53
2022-09-02T03:10:58.691Z,4.63
2022-09-02T03:13:33.244Z,5.17
2022-09-02T03:16:03.133Z,4.33
2022-09-02T03:18:32.657Z,4.90
2022-09-02T03:21:01.418Z,4.60
2022-09-02T03:23:30.145Z,5.13
2022-09-02T03:25:58.639Z,4.97
2022-09-02T03:28:40.566Z,4.33
2022-09-02T03:31:10.270Z,5.27
2022-09-02T03:33:38.737Z,6.07
2022-09-02T03:36:07.758Z,5.40
2022-09-02T03:38:37.832Z,5.43
2022-09-02T03:41:06.333Z,5.07
2022-09-02T03:43:35.310Z,5.37
2022-09-02T03:46:05.538Z,4.90
2022-09-02T03:48:34.045Z,5.63
2022-09-02T03:51:03.489Z,4.97
2022-09-02T03:53:35.496Z,4.73
2022-09-02T03:56:07.000Z,4.90
2022-09-02T03:58:36.663Z,5.60
2022-09-02T04:01:07.049Z,5.70
2022-09-02T04:03:35.650Z,5.50
2022-09-02T04:06:04.117Z,5.60
2022-09-02T04:08:33.130Z,6.20
2022-09-02T04:11:06.559Z,6.03
2022-09-02T04:13:38.265Z,5.97
2022-09-02T04:16:12.512Z,6.37
2022-09-02T04:18:41.316Z,6.30
2022-09-02T04:21:12.507Z,6.80
2022-09-02T04:23:41.663Z,6.13
2022-09-02T04:26:11.270Z,6.57
2022-09-02T04:28:40.000Z,6.90
2022-09-02T04:31:11.933Z,6.47
2022-09-02T04:33:42.777Z,6.80
2022-09-02T04:36:15.612Z,6.80
2022-09-02T04:38:47.831Z,5.70
2022-09-02T04:41:18.863Z,6.27
2022-09-02T04:43:47.258Z,5.47
2022-09-02T04:46:17.895Z,6.00
2022-09-02T04:48:52.240Z,6.57
2022-09-02T04:51:22.908Z,5.90
2022-09-02T04:53:53.583Z,6.27
2022-09-02T04:56:24.272Z,6.77
2022-09-02T04:58:54.008Z,6.20
2022-09-02T05:01:25.557Z,6.03
2022-09-02T05:03:58.728Z,6.07
2022-09-02T05:06:32.764Z,5.70
2022-09-02T05:09:01.956Z,6.60
2022-09-02T05:11:33.919Z,5.90
2022-09-02T05:14:04.283Z,6.90
2022-09-02T05:16:37.955Z,6.50
2022-09-02T05:19:11.855Z,5.97
2022-09-02T05:21:47.058Z,6.80
2022-09-02T05:24:26.675Z,6.60
2022-09-02T05:26:56.516Z,6.57
2022-09-02T05:29:26.548Z,6.70
2022-09-02T05:31:58.229Z,6.40
2022-09-02T05:34:27.887Z,6.70
2022-09-02T05:36:59.900Z,6.80
2022-09-02T05:39:31.702Z,6.77
2022-09-02T05:42:01.036Z,6.50
2022-09-02T05:44:31.350Z,6.40
2022-09-02T05:47:02.278Z,6.87
2022-09-02T05:49:30.827Z,6.60
2022-09-02T05:52:11.906Z,5.90
2022-09-02T05:54:44.492Z,5.83
2022-09-02T05:57:16.935Z,6.20
2022-09-02T06:00:07.647Z,6.07
2022-09-02T06:02:53.319Z,5.80
2022-09-02T06:05:42.563Z,5.13
2022-09-02T06:08:20.201Z,5.13
2022-09-02T06:10:48.691Z,4.83
2022-09-02T06:13:22.627Z,5.43
2022-09-02T06:15:53.483Z,4.77
2022-09-02T06:18:26.790Z,5.23
2022-09-02T06:20:57.564Z,5.30
2022-09-02T06:23:30.933Z,5.07
2022-09-02T06:26:02.640Z,5.17
2022-09-02T06:28:31.408Z,4.77
2022-09-02T06:31:01.435Z,4.27
2022-09-02T06:33:31.604Z,4.50
2022-09-02T06:36:00.038Z,4.60
2022-09-02T06:38:31.595Z,4.70
2022-09-02T06:41:00.083Z,4.80
2022-09-02T06:43:42.258Z,4.57
2022-09-02T06:46:21.341Z,4.33
2022-09-02T06:48:54.169Z,4.40
2022-09-02T06:51:25.721Z,4.50
2022-09-02T06:53:55.310Z,3.87
2022-09-02T06:56:26.651Z,4.40
2022-09-02T06:58:55.847Z,3.90
2022-09-02T07:01:37.001Z,4.10
2022-09-02T07:04:24.897Z,3.60
2022-09-02T07:06:54.910Z,4.00
2022-09-02T07:09:31.267Z,3.37
2022-09-02T07:12:05.796Z,3.83
2022-09-02T07:14:39.343Z,3.60
2022-09-02T07:17:08.414Z,3.70
2022-09-02T07:19:38.278Z,3.30
2022-09-02T07:22:07.455Z,3.23
2022-09-02T07:24:41.393Z,3.00
2022-09-02T07:27:11.218Z,2.80
2022-09-02T07:29:41.386Z,2.90
2022-09-02T07:32:10.031Z,2.73
2022-09-02T07:34:39.970Z,3.20
2022-09-02T07:37:10.867Z,2.80
2022-09-02T07:39:39.929Z,2.70
2022-09-02T07:42:10.512Z,2.70
2022-09-02T07:44:38.966Z,2.47
2022-09-02T07:47:09.802Z,2.63
2022-09-02T07:52:32.132Z,2.77
2022-09-02T07:55:00.502Z,3.13
2022-09-02T07:57:29.723Z,2.50
2022-09-02T07:59:58.095Z,2.40
2022-09-02T08:02:26.801Z,2.40
2022-09-02T08:04:57.226Z,2.00
2022-09-02T08:07:25.615Z,2.00
2022-09-02T08:09:54.035Z,2.20
2022-09-02T08:12:22.644Z,1.73
2022-09-02T08:14:51.129Z,1.80
2022-09-02T08:17:19.539Z,1.90
2022-09-02T08:19:47.913Z,1.70
2022-09-02T08:22:17.709Z,2.00
2022-09-02T08:24:46.050Z,1.80
2022-09-02T08:27:14.449Z,1.83
2022-09-02T08:29:43.509Z,1.70
2022-09-02T08:32:12.162Z,1.67
2022-09-02T08:34:40.565Z,1.70
2022-09-02T08:37:08.926Z,1.53
2022-09-02T08:39:38.656Z,1.77
2022-09-02T08:42:09.597Z,1.90
2022-09-02T08:44:38.817Z,1.60
2022-09-02T08:47:10.989Z,1.43
2022-09-02T08:49:41.978Z,1.55
2022-09-02T08:52:12.797Z,1.70
2022-09-02T08:54:47.643Z,1.40
2022-09-02T08:57:16.247Z,1.40
2022-09-02T08:59:45.983Z,1.50
2022-09-02T09:02:20.593Z,1.40
2022-09-02T09:05:03.114Z,1.50
2022-09-02T09:10:10.268Z,1.30
2022-09-02T09:12:46.608Z,1.08
2022-09-02T09:15:18.856Z,1.30
2022-09-02T09:17:51.823Z,1.30
2022-09-02T09:20:23.606Z,1.10
2022-09-02T09:22:53.674Z,1.30
2022-09-02T09:25:30.170Z,1.23
2022-09-02T09:27:58.852Z,1.30
2022-09-02T09:30:27.741Z,1.20
2022-09-02T09:32:57.422Z,1.40
2022-09-02T09:35:26.568Z,1.27
2022-09-02T09:37:55.677Z,1.10
2022-09-02T09:40:30.582Z,1.20
2022-09-02T09:45:34.199Z,1.30
2022-09-02T09:48:25.789Z,1.10
2022-09-02T09:51:09.813Z,1.23
2022-09-02T09:53:40.524Z,1.10
2022-09-02T09:56:26.562Z,1.05
2022-09-02T09:58:55.006Z,1.10
2022-09-02T10:01:25.028Z,1.10
2022-09-02T10:03:59.397Z,1.00
2022-09-02T10:06:38.732Z,1.13
2022-09-02T10:09:07.992Z,1.15
2022-09-02T10:11:38.419Z,1.35
2022-09-02T10:14:07.442Z,1.10
2022-09-02T10:16:50.422Z,1.00
2022-09-02T10:19:22.098Z,1.10
2022-09-02T10:21:59.449Z,0.85
2022-09-02T10:24:35.812Z,1.05
2022-09-02T10:27:09.807Z,1.10
2022-09-02T10:29:48.102Z,0.98
2022-09-02T10:32:22.041Z,1.10
2022-09-02T10:34:53.384Z,1.00
2022-09-02T10:37:23.253Z,1.10
2022-09-02T10:40:06.336Z,1.20
2022-09-02T10:42:41.809Z,1.00
2022-09-02T10:45:14.441Z,1.25
2022-09-02T10:47:46.590Z,0.93
2022-09-02T10:50:23.732Z,1.00
2022-09-02T10:52:57.665Z,0.98
2022-09-02T10:55:29.219Z,0.90
2022-09-02T10:58:02.798Z,1.15
2022-09-02T11:00:33.460Z,0.90
2022-09-02T11:03:06.269Z,0.98
2022-09-02T11:05:40.121Z,1.00
2022-09-02T11:08:10.359Z,1.05
2022-09-02T11:10:40.325Z,1.00
2022-09-02T11:13:11.268Z,0.82
2022-09-02T11:15:44.150Z,1.10
2022-09-02T11:18:18.040Z,0.93
2022-09-02T11:20:50.417Z,0.90
2022-09-02T11:23:22.593Z,1.00
2022-09-02T11:25:55.679Z,1.23
2022-09-02T11:28:29.028Z,0.90
2022-09-02T11:31:01.880Z,1.00
2022-09-02T11:33:31.963Z,0.90
2022-09-02T11:36:00.841Z,1.08
2022-09-02T11:38:34.315Z,1.08
2022-09-02T11:41:34.455Z,1.00
2022-09-02T11:44:13.864Z,0.90
2022-09-02T11:46:48.596Z,1.10
2022-09-02T11:49:26.608Z,0.80
2022-09-02T11:52:16.008Z,0.80
2022-09-02T11:54:46.315Z,0.98
2022-09-02T11:57:19.902Z,1.00
2022-09-02T12:00:07.315Z,0.90
2022-09-02T12:02:47.187Z,0.90
2022-09-02T12:05:45.734Z,1.02
2022-09-02T12:08:15.230Z,0.95
2022-09-02T12:11:01.150Z,0.90
2022-09-02T12:13:37.950Z,0.80
2022-09-02T12:16:25.043Z,1.00
2022-09-02T12:19:10.680Z,1.13
2022-09-02T12:22:01.874Z,0.85
2022-09-02T12:24:32.225Z,1.00
2022-09-02T12:27:09.516Z,1.08
2022-09-02T12:29:39.717Z,0.95
2022-09-02T12:32:10.524Z,1.00
2022-09-02T12:34:54.598Z,1.10
2022-09-02T12:37:41.956Z,1.00
2022-09-02T12:40:17.487Z,0.90
2022-09-02T12:42:46.746Z,0.93
2022-09-02T12:45:28.977Z,1.00
2022-09-02T12:48:02.292Z,1.00
2022-09-02T12:50:36.073Z,1.10
2022-09-02T12:53:18.046Z,1.20
2022-09-02T12:55:55.252Z,0.80
2022-09-02T12:58:27.602Z,0.90
2022-09-02T13:01:02.358Z,0.85
2022-09-02T13:03:44.920Z,1.20
2022-09-02T13:06:16.027Z,0.85
2022-09-02T13:08:53.150Z,1.10
2022-09-02T13:11:39.450Z,1.10
2022-09-02T13:14:31.636Z,1.00
2022-09-02T13:20:12.888Z,1.00
2022-09-02T13:23:14.343Z,1.13
2022-09-02T13:26:00.888Z,1.20
2022-09-02T13:28:38.202Z,1.10
2022-09-02T13:31:12.664Z,1.10
2022-09-02T13:33:43.300Z,1.00
2022-09-02T13:36:11.899Z,0.95
2022-09-02T13:38:40.346Z,1.00
2022-09-02T13:41:09.426Z,1.00
2022-09-02T13:43:37.871Z,0.90
2022-09-02T13:46:10.475Z,1.05
2022-09-02T13:48:41.478Z,1.30
2022-09-02T13:51:14.605Z,1.08
2022-09-02T13:53:49.159Z,1.17
2022-09-02T13:56:30.659Z,1.10
2022-09-02T13:58:59.040Z,1.10
2022-09-02T14:01:29.651Z,1.00
2022-09-02T14:03:59.280Z,0.90
2022-09-02T14:06:31.680Z,0.90
2022-09-02T14:09:01.704Z,1.10
2022-09-02T14:11:30.954Z,0.90
2022-09-02T14:13:59.475Z,1.08
2022-09-02T14:16:33.606Z,0.90
2022-09-02T14:19:06.082Z,1.13
2022-09-02T14:21:36.241Z,1.00
2022-09-02T14:24:05.064Z,0.90
2022-09-02T14:26:35.441Z,0.90
2022-09-02T14:29:03.982Z,1.00
2022-09-02T14:31:34.015Z,1.08
2022-09-02T14:34:04.501Z,0.98
2022-09-02T14:36:38.380Z,0.85
2022-09-02T14:39:16.807Z,1.08
2022-09-02T14:41:49.042Z,1.25
2022-09-02T14:44:19.609Z,1.42
2022-09-02T14:46:48.607Z,0.90
2022-09-02T14:49:21.070Z,1.10
2022-09-02T14:51:52.084Z,0.88
2022-09-02T14:54:36.640Z,1.20
2022-09-02T14:57:05.834Z,1.10
2022-09-02T14:59:34.225Z,1.00
2022-09-02T15:02:02.648Z,1.20
2022-09-02T15:04:32.945Z,1.17
2022-09-02T15:07:02.994Z,1.10
2022-09-02T15:09:31.366Z,1.17
2022-09-02T15:12:02.853Z,1.13
2022-09-02T15:14:31.473Z,1.08
2022-09-02T15:17:00.110Z,1.10
2022-09-02T15:19:28.477Z,1.05
2022-09-02T15:21:56.843Z,1.00
2022-09-02T15:24:27.215Z,1.00
2022-09-02T15:26:59.126Z,1.10
2022-09-02T15:29:29.089Z,1.00
2022-09-02T15:31:59.554Z,1.00
2022-09-02T15:34:28.384Z,1.02
2022-09-02T15:36:57.389Z,0.90
2022-09-02T15:39:27.514Z,1.00
2022-09-02T15:41:56.403Z,0.95
2022-09-02T15:44:25.922Z,0.98
2022-09-02T15:46:54.565Z,1.33
2022-09-02T15:49:25.568Z,1.10
2022-09-02T15:51:55.315Z,1.20
2022-09-02T15:54:24.632Z,1.00
2022-09-02T15:56:59.713Z,1.02
2022-09-02T15:59:28.461Z,1.00
2022-09-02T16:01:58.658Z,1.10
2022-09-02T16:04:29.305Z,1.10
2022-09-02T16:06:57.971Z,1.00
2022-09-02T16:09:29.127Z,1.13
2022-09-02T16:12:01.173Z,0.98
2022-09-02T16:14:29.598Z,1.00
2022-09-02T16:16:58.358Z,1.20
2022-09-02T16:19:30.076Z,0.93
2022-09-02T16:21:59.059Z,0.88
2022-09-02T16:24:29.840Z,1.00
2022-09-02T16:27:02.019Z,0.82
2022-09-02T16:29:33.151Z,1.02
2022-09-02T16:32:23.647Z,1.20
2022-09-02T16:34:50.088Z,1.05
2022-09-02T16:37:18.944Z,1.00
2022-09-02T16:39:47.405Z,0.88
2022-09-02T16:42:17.239Z,1.00
2022-09-02T16:44:46.003Z,1.10
2022-09-02T16:47:20.202Z,1.30
2022-09-02T16:49:48.668Z,1.00
2022-09-02T16:52:17.073Z,1.95
2022-09-02T16:54:45.588Z,1.13
2022-09-02T16:57:14.046Z,0.98
2022-09-02T16:59:43.733Z,1.02
2022-09-02T17:02:12.123Z,1.00
2022-09-02T17:04:40.510Z,1.40
2022-09-02T17:07:09.561Z,0.90
2022-09-02T17:09:38.791Z,0.90
2022-09-02T17:12:07.357Z,1.30
2022-09-02T17:14:35.745Z,1.10
2022-09-02T17:17:05.562Z,1.10
2022-09-02T17:19:33.973Z,0.88
2022-09-02T17:22:02.348Z,1.10
2022-09-02T17:24:31.687Z,1.10
2022-09-02T17:27:01.136Z,1.00
2022-09-02T17:32:20.551Z,1.10
2022-09-02T17:34:50.475Z,1.30
2022-09-02T17:37:22.255Z,1.13
2022-09-02T17:39:51.112Z,0.98
2022-09-02T17:42:18.925Z,1.20
2022-09-02T17:44:48.535Z,1.00
2022-09-02T17:47:20.067Z,1.10
2022-09-02T17:49:50.160Z,0.90
2022-09-02T17:52:19.630Z,1.20
2022-09-02T17:54:49.809Z,0.93
2022-09-02T17:57:23.723Z,1.08
2022-09-02T18:00:08.891Z,1.10
2022-09-02T18:02:56.812Z,0.80
2022-09-02T18:05:29.646Z,1.20
2022-09-02T18:08:02.709Z,1.10
2022-09-02T18:10:33.501Z,1.05
2022-09-02T18:13:04.884Z,1.00
2022-09-02T18:15:37.898Z,1.10
2022-09-02T18:18:06.494Z,1.10
2022-09-02T18:20:41.853Z,1.10
2022-09-02T18:23:22.616Z,1.20
2022-09-02T18:25:54.800Z,1.20
2022-09-02T18:28:35.833Z,1.00
2022-09-02T18:31:09.424Z,1.30
2022-09-02T18:33:45.155Z,1.23
2022-09-02T18:36:21.270Z,1.40
2022-09-02T18:38:55.399Z,1.05
2022-09-02T18:41:36.745Z,1.20
2022-09-02T18:44:11.092Z,1.48
2022-09-02T18:46:46.474Z,1.23
2022-09-02T18:49:16.510Z,1.08
2022-09-02T18:51:46.910Z,1.05
2022-09-02T18:54:16.715Z,1.15
2022-09-02T18:56:48.979Z,1.38
2022-09-02T18:59:20.931Z,1.10
2022-09-02T19:01:57.538Z,1.20
2022-09-02T19:04:29.533Z,1.10
2022-09-02T19:07:13.343Z,1.15
2022-09-02T19:09:42.175Z,1.50
2022-09-02T19:12:11.856Z,1.33
2022-09-02T19:14:41.156Z,1.30
2022-09-02T19:17:12.541Z,1.40
2022-09-02T19:19:40.894Z,1.38
2022-09-02T19:22:11.681Z,1.40
2022-09-02T19:24:43.652Z,1.30
2022-09-02T19:27:13.984Z,1.17
2022-09-02T19:29:44.494Z,1.20
2022-09-02T19:32:13.563Z,1.10
2022-09-02T19:34:43.253Z,1.40
2022-09-02T19:37:13.540Z,1.42
2022-09-02T19:39:42.309Z,1.17
2022-09-02T19:42:11.000Z,1.27
2022-09-02T19:44:40.107Z,1.50
2022-09-02T19:48:02.641Z,1.20
2022-09-02T19:50:00.984Z,1.30
2022-09-02T19:52:30.712Z,1.52
2022-09-02T19:54:59.150Z,1.30
2022-09-02T19:57:27.600Z,1.15
2022-09-02T19:59:56.619Z,1.55
2022-09-02T20:02:25.100Z,1.50
2022-09-02T20:04:54.238Z,1.48
2022-09-02T20:07:22.620Z,1.25
2022-09-02T20:09:52.424Z,1.30
2022-09-02T20:12:20.911Z,1.20
2022-09-02T20:14:49.278Z,1.40
2022-09-02T20:17:20.530Z,1.50
2022-09-02T20:19:48.966Z,1.53
2022-09-02T20:22:18.210Z,1.70
2022-09-02T20:24:46.680Z,1.60
2022-09-02T20:27:21.818Z,1.70
2022-09-02T20:30:00.563Z,1.80
2022-09-02T20:32:33.301Z,1.70
2022-09-02T20:35:10.367Z,1.70
2022-09-02T20:37:46.363Z,1.60
2022-09-02T20:40:27.065Z,1.60
2022-09-02T20:43:10.338Z,1.57
2022-09-02T20:45:42.174Z,1.77
2022-09-02T20:48:22.492Z,1.60
2022-09-02T20:50:51.797Z,1.60
2022-09-02T20:53:27.854Z,1.50
2022-09-02T20:55:58.193Z,1.50
2022-09-02T20:58:36.019Z,1.50
2022-09-02T21:01:07.611Z,1.50
2022-09-02T21:03:41.328Z,1.70
2022-09-02T21:06:11.699Z,1.67
2022-09-02T21:08:47.884Z,1.70
2022-09-02T21:11:20.359Z,1.60
2022-09-02T21:13:50.502Z,1.40
2022-09-02T21:16:22.719Z,1.70
2022-09-02T21:18:58.439Z,1.67
2022-09-02T21:21:29.717Z,1.70
2022-09-02T21:24:02.061Z,1.77
2022-09-02T21:26:37.355Z,1.60
2022-09-02T21:29:11.403Z,1.53
2022-09-02T21:31:43.810Z,1.80
2022-09-02T21:34:19.417Z,1.53
2022-09-02T21:36:47.865Z,1.60
2022-09-02T21:39:18.776Z,1.60
2022-09-02T21:41:49.734Z,1.67
2022-09-02T21:44:21.282Z,1.80
2022-09-02T21:47:01.480Z,1.67
2022-09-02T21:49:41.269Z,1.53
2022-09-02T21:52:15.060Z,1.60
2022-09-02T21:54:50.767Z,1.40
2022-09-02T21:57:24.500Z,1.53
2022-09-02T21:59:59.614Z,1.50
2022-09-02T22:02:35.641Z,1.40
2022-09-02T22:05:11.148Z,1.70
2022-09-02T22:07:44.292Z,1.60
2022-09-02T22:10:16.226Z,1.50
2022-09-02T22:12:51.920Z,1.70
2022-09-02T22:15:24.016Z,1.80
2022-09-02T22:17:55.460Z,1.80
2022-09-02T22:20:29.936Z,1.50
2022-09-02T22:23:00.522Z,1.47
2022-09-02T22:25:32.669Z,1.43
2022-09-02T22:28:04.709Z,1.73
2022-09-02T22:30:33.201Z,1.77
2022-09-02T22:33:08.908Z,1.40
2022-09-02T22:35:41.442Z,1.40
2022-09-02T22:38:12.088Z,1.67
2022-09-02T22:40:43.074Z,1.67
2022-09-02T22:43:13.534Z,1.50
2022-09-02T22:46:03.314Z,1.47
2022-09-02T22:48:55.210Z,1.57
2022-09-02T22:51:45.743Z,1.73
2022-09-02T22:54:14.160Z,1.53
2022-09-02T22:56:43.732Z,1.40
2022-09-02T22:59:24.266Z,1.30
2022-09-02T23:01:55.237Z,1.47
2022-09-02T23:04:40.691Z,1.50
2022-09-02T23:07:12.943Z,1.30
2022-09-02T23:09:41.319Z,1.40
2022-09-02T23:12:15.000Z,1.17
2022-09-02T23:14:50.278Z,1.60
2022-09-02T23:17:23.759Z,1.40
2022-09-02T23:20:02.004Z,1.23
2022-09-02T23:22:36.014Z,1.57
2022-09-02T23:25:15.564Z,1.43
2022-09-02T23:27:46.185Z,1.60
2022-09-02T23:30:14.892Z,1.53
2022-09-02T23:32:55.849Z,1.43
2022-09-02T23:35:28.472Z,1.60
2022-09-02T23:38:05.434Z,1.63
2022-09-02T23:40:38.059Z,1.43
2022-09-02T23:43:06.436Z,1.57
2022-09-02T23:45:35.601Z,1.67
2022-09-02T23:48:19.387Z,1.60
2022-09-02T23:50:56.288Z,1.30
2022-09-02T23:53:25.485Z,1.70
2022-09-02T23:56:00.109Z,1.40
2022-09-02T23:58:35.433Z,1.53
